CmaCGm Ohio — 9HA4132 — position and weather

sailwx.info

Track history (hours):
 
Tides and Currents Weather Stations Pressure Air Temp Water Temp Dewpoint Dewpoint Depression Visibility Wind Speed Wind Dir Waves Ship Positions

CmaCGm Ohio

Last reported at 2017-Nov-17 00:35 UTC. Time now 2017-Nov-23 01:32 UTC.
Position N 34°52' E 140°15'.

Length 300 m; draft 13.4 m.

Type: Ship (hazmat cat A). MMSI: 249167000.

Date/timePositionNaut miles runAvg speedWind from/ knotsBaromVisibWave heightAir tempDewpointWater temp
2017-Nov-17 00:35N 34°52' E 140°15'2814.6
2017-Nov-16 22:39N 34°57' E 139°41'317.5
2017-Nov-16 22:28N 34°60' E 139°41'817.0
2017-Nov-16 22:00N 35°07' E 139°44'713.3
2017-Nov-16 21:30N 35°14' E 139°46'612.7
2017-Nov-16 21:00N 35°19' E 139°43'5 9.4
2017-Nov-16 20:30N 35°24' E 139°40'1 1.3
2017-Nov-16 20:00N 35°24' E 139°41'0 0.0
2017-Nov-16 19:30N 35°24' E 139°41'0 0.0
2017-Nov-16 19:00N 35°24' E 139°41'0 0.0
2017-Nov-16 18:30N 35°24' E 139°41'0 0.0
2017-Nov-16 18:00N 35°24' E 139°41'0 0.0
2017-Nov-16 17:30N 35°24' E 139°41'0 0.0
2017-Nov-16 17:00N 35°24' E 139°41'0 0.0
2017-Nov-16 16:24N 35°24' E 139°41'0 0.0
2017-Nov-16 16:00N 35°24' E 139°41'0 0.0
2017-Nov-16 15:30N 35°24' E 139°41'0 0.0
2017-Nov-16 15:00N 35°24' E 139°41'0 0.0
2017-Nov-16 14:30N 35°24' E 139°41'0 0.0
2017-Nov-16 14:00N 35°24' E 139°41'0 0.0
2017-Nov-16 13:30N 35°24' E 139°41'0 0.0
2017-Nov-16 13:00N 35°24' E 139°41'0 0.0
2017-Nov-16 12:30N 35°24' E 139°41'0 0.0
2017-Nov-16 12:00N 35°24' E 139°41'0 0.0
2017-Nov-16 11:30N 35°24' E 139°41'0 0.0
2017-Nov-16 11:00N 35°24' E 139°41'0 0.0
2017-Nov-16 10:30N 35°24' E 139°41'0 0.0
2017-Nov-16 09:22N 35°24' E 139°41'0 0.1
2017-Nov-16 09:00N 35°24' E 139°41'1 2.3
2017-Nov-16 08:30N 35°23' E 139°41'4 8.6
2017-Nov-16 08:00N 35°19' E 139°43'612.2
2017-Nov-16 07:30N 35°14' E 139°47'611.7
2017-Nov-16 07:00N 35°08' E 139°46'816.1
2017-Nov-16 06:31N 35°01' E 139°40'  
2017-Nov-12 09:36N 30°50' E 123°36'821.1
2017-Nov-12 09:13N 30°46' E 123°28'7212.4
2017-Nov-12 03:24N 30°37' E 122°05'0 0.0
2017-Nov-12 02:54N 30°37' E 122°05'0 0.0
2017-Nov-12 02:24N 30°37' E 122°05'1 0.0
2017-Nov-11 05:16N 30°37' E 122°04'2 4.1
2017-Nov-11 04:49N 30°36' E 122°06'5 8.9
2017-Nov-11 04:18N 30°34' E 122°11'27 0.8
2017-Nov-09 19:04N 30°25' E 122°41'0 0.0
2017-Nov-09 18:40N 30°25' E 122°41'0 0.0
2017-Nov-09 13:40N 30°25' E 122°41'0 0.0
2017-Nov-09 12:04N 30°25' E 122°41'0 0.1
2017-Nov-09 11:34N 30°25' E 122°41'  
Track history (hours):
 
Tides and Currents Weather Stations Pressure Air Temp Water Temp Dewpoint Dewpoint Depression Visibility Wind Speed Wind Dir Waves Ship Positions

CmaCGm Ohio

Last reported at 2017-Nov-17 00:35 UTC. Time now 2017-Nov-23 01:32 UTC.
Position N 34°52' E 140°15'.

Length 300 m; draft 13.4 m.

Type: Ship (hazmat cat A). MMSI: 249167000.

Date/timePositionNaut miles runAvg speedWind from/ knotsBaromVisibWave heightAir tempDewpointWater temp
2017-Nov-17 00:35N 34°52' E 140°15'2814.6
2017-Nov-16 22:39N 34°57' E 139°41'317.5
2017-Nov-16 22:28N 34°60' E 139°41'817.0
2017-Nov-16 22:00N 35°07' E 139°44'713.3
2017-Nov-16 21:30N 35°14' E 139°46'612.7
2017-Nov-16 21:00N 35°19' E 139°43'5 9.4
2017-Nov-16 20:30N 35°24' E 139°40'1 1.3
2017-Nov-16 20:00N 35°24' E 139°41'0 0.0
2017-Nov-16 19:30N 35°24' E 139°41'0 0.0
2017-Nov-16 19:00N 35°24' E 139°41'0 0.0
2017-Nov-16 18:30N 35°24' E 139°41'0 0.0
2017-Nov-16 18:00N 35°24' E 139°41'0 0.0
2017-Nov-16 17:30N 35°24' E 139°41'0 0.0
2017-Nov-16 17:00N 35°24' E 139°41'0 0.0
2017-Nov-16 16:24N 35°24' E 139°41'0 0.0
2017-Nov-16 16:00N 35°24' E 139°41'0 0.0
2017-Nov-16 15:30N 35°24' E 139°41'0 0.0
2017-Nov-16 15:00N 35°24' E 139°41'0 0.0
2017-Nov-16 14:30N 35°24' E 139°41'0 0.0
2017-Nov-16 14:00N 35°24' E 139°41'0 0.0
2017-Nov-16 13:30N 35°24' E 139°41'0 0.0
2017-Nov-16 13:00N 35°24' E 139°41'0 0.0
2017-Nov-16 12:30N 35°24' E 139°41'0 0.0
2017-Nov-16 12:00N 35°24' E 139°41'0 0.0
2017-Nov-16 11:30N 35°24' E 139°41'0 0.0
2017-Nov-16 11:00N 35°24' E 139°41'0 0.0
2017-Nov-16 10:30N 35°24' E 139°41'0 0.0
2017-Nov-16 09:22N 35°24' E 139°41'0 0.1
2017-Nov-16 09:00N 35°24' E 139°41'1 2.3
2017-Nov-16 08:30N 35°23' E 139°41'4 8.6
2017-Nov-16 08:00N 35°19' E 139°43'612.2
2017-Nov-16 07:30N 35°14' E 139°47'611.7
2017-Nov-16 07:00N 35°08' E 139°46'816.1
2017-Nov-16 06:31N 35°01' E 139°40'  
2017-Nov-12 09:36N 30°50' E 123°36'821.1
2017-Nov-12 09:13N 30°46' E 123°28'7212.4
2017-Nov-12 03:24N 30°37' E 122°05'0 0.0
2017-Nov-12 02:54N 30°37' E 122°05'0 0.0
2017-Nov-12 02:24N 30°37' E 122°05'1 0.0
2017-Nov-11 05:16N 30°37' E 122°04'2 4.1
2017-Nov-11 04:49N 30°36' E 122°06'5 8.9
2017-Nov-11 04:18N 30°34' E 122°11'27 0.8
2017-Nov-09 19:04N 30°25' E 122°41'0 0.0
2017-Nov-09 18:40N 30°25' E 122°41'0 0.0
2017-Nov-09 13:40N 30°25' E 122°41'0 0.0
2017-Nov-09 12:04N 30°25' E 122°41'0 0.1
2017-Nov-09 11:34N 30°25' E 122°41'  

Dump ship's entire track history